KLVN

Airlake Airport

Minneapolis, Minnesota, USA
METAR KLVN 191556Z AUTO 34008KT 10SM CLR M16/M20 A3035 RMK AO2
Observed Flight Rules
Jan-19 @ 15:56 UTC (43 minutes ago) Visual Flight Rules
Wind Visibility Clouds
340° at 8 knots 10 miles
  • Clear skies
Temperatures Readings
Current -16°C / 3°F
Dewpoint -20°C / -4°F
Humidity 72%
Altimeter 30.35" Hg
Pressure 1027.82 hPa
Elevation 293
METAR KLVN 191556Z AUTO 34008KT 10SM CLR M16/M20 A3035 RMK AO2
Observed Flight Rules
Jan-19 @ 15:56 UTC
(43 minutes ago)
VFR
Wind Visibility
340° at 8 knots 10 miles
Clouds
  • Clear skies
Temperature Dewpoint
-16°C / 3°F -20°C / -4°F
Humidity Altimeter Pressure
72% 30.35" Hg 1027.82 hPa